KNBG/NBG METAR and TAF weather

Enter ICAO airport designator
Station Type Date Time Source
KNBG METAR 2020/04/06 15:55 UTC NOAA

KNBG 061555Z 13011KT 10SM SCT027 SCT150 BKN250 24/18 A3009 RMK AO2 SLP190 T02440178 $


Station Type Date Time Source
KNBG Decoded METAR 2020/04/06 15:55 UTC NOAA

NEW ORLEANS NAVAL AIR STN, LA, United States (KNBG) 29-50N 90-01W
Apr 06, 2020 - 11:55 AM EDT / 2020.04.06 1555 UTC
Wind: from the SE (130 degrees) at 13 MPH (11 KT):0
Visibility: 10 mile(s):0
Sky conditions: mostly cloudy
Temperature: 75.9 F (24.4 C)
Dew Point: 64.0 F (17.8 C)
Relative Humidity: 66%
Pressure (altimeter): 30.09 in. Hg (1018 hPa)
ob: KNBG 061555Z 13011KT 10SM SCT027 SCT150 BKN250 24/18 A3009 RMK AO2 SLP190 T02440178
cycle: 16

Station Type Date Time Source
KNBG TAF 2020/04/06 15:52 UTC NOAA

TAF KNBG 0615/0715 12010G18KT 9999 SCT025 BKN130 BKN250 QNH3000INS
BECMG 0621/0623 13010KT 9999 BKN030 BKN150 BKN250 QNH2998INS
BECMG 0703/0705 14007KT 8000 BR BKN020 BKN080 BKN250 QNH3000INS
BECMG 0709/0711 18005KT 4800 BR BKN015 OVC130 QNH3001INS
BECMG 0713/0715 18010G17KT 9999 NSW SCT035 SCT110 BKN250 QNH3003INS T27/0619/T21/0712Z FN20039

Example: see airport list